createdAt,value
2018-05-18T00:02:03.523Z,68.80
2018-05-18T00:07:04.995Z,70.00
2018-05-18T00:12:06.456Z,71.60
2018-05-18T00:17:07.944Z,72.20
2018-05-18T00:22:09.465Z,72.60
2018-05-18T00:27:10.972Z,72.90
2018-05-18T00:32:19.442Z,72.40
2018-05-18T00:37:20.928Z,73.70
2018-05-18T00:42:22.361Z,73.40
2018-05-18T00:47:23.861Z,74.20
2018-05-18T00:52:26.115Z,74.20
2018-05-18T00:57:27.580Z,73.30
2018-05-18T01:02:29.081Z,73.70
2018-05-18T01:07:30.613Z,74.20
2018-05-18T01:12:32.114Z,74.00
2018-05-18T01:17:33.558Z,73.40
2018-05-18T01:22:35.099Z,72.60
2018-05-18T01:27:36.623Z,71.90
2018-05-18T01:32:38.922Z,72.80
2018-05-18T01:37:41.185Z,73.40
2018-05-18T01:42:42.694Z,73.40
2018-05-18T01:47:44.289Z,73.60
2018-05-18T01:52:45.815Z,73.20
2018-05-18T01:57:47.369Z,73.30
2018-05-18T02:02:49.688Z,74.00
2018-05-18T02:07:51.169Z,73.80
2018-05-18T02:12:52.714Z,73.50
2018-05-18T02:17:54.207Z,74.20
2018-05-18T02:22:56.393Z,75.80
2018-05-18T02:27:57.851Z,75.10
2018-05-18T02:32:59.392Z,75.00
2018-05-18T02:38:00.866Z,75.30
2018-05-18T02:43:02.329Z,75.20
2018-05-18T02:48:03.976Z,75.70
2018-05-18T02:53:06.255Z,75.40
2018-05-18T02:58:08.504Z,75.70
2018-05-18T03:03:10.076Z,75.70
2018-05-18T03:08:11.516Z,76.20
2018-05-18T03:13:13.037Z,75.90
2018-05-18T03:18:15.292Z,76.70
2018-05-18T03:23:16.804Z,76.60
2018-05-18T03:28:19.050Z,76.80
2018-05-18T03:33:20.572Z,76.70
2018-05-18T03:38:22.136Z,77.20
2018-05-18T03:43:23.689Z,77.30
2018-05-18T03:48:25.981Z,78.10
2018-05-18T03:53:27.501Z,78.00
2018-05-18T03:58:29.016Z,78.10
2018-05-18T04:03:49.759Z,78.00
2018-05-18T04:08:53.292Z,77.90
2018-05-18T04:13:54.773Z,78.00
2018-05-18T04:18:56.568Z,77.30
2018-05-18T04:23:58.887Z,75.90
2018-05-18T04:29:07.535Z,75.80
2018-05-18T04:34:09.111Z,76.40
2018-05-18T04:39:10.620Z,75.10
2018-05-18T04:44:12.143Z,71.20
2018-05-18T04:49:13.688Z,69.00
2018-05-18T04:54:15.178Z,68.70
2018-05-18T04:59:16.719Z,67.60
2018-05-18T05:04:18.252Z,66.80
2018-05-18T05:09:20.044Z,65.10
2018-05-18T05:14:22.280Z,66.30
2018-05-18T05:19:23.828Z,66.30
2018-05-18T05:24:25.373Z,64.90
2018-05-18T05:29:26.828Z,61.10
2018-05-18T05:34:29.103Z,56.80
2018-05-18T05:39:30.703Z,57.50
2018-05-18T05:44:32.166Z,57.20
2018-05-18T05:49:33.702Z,53.80
2018-05-18T05:54:35.154Z,53.90
2018-05-18T05:59:36.701Z,54.70
2018-05-18T06:04:38.270Z,58.10
2018-05-18T06:09:40.015Z,60.30
2018-05-18T06:14:41.511Z,57.40
2018-05-18T06:19:43.041Z,54.40
2018-05-18T06:24:45.247Z,57.90
2018-05-18T06:29:46.877Z,57.90
2018-05-18T06:34:49.202Z,62.80
2018-05-18T06:39:50.651Z,62.80
2018-05-18T06:44:52.388Z,61.60
2018-05-18T06:49:53.925Z,62.00
2018-05-18T06:54:55.460Z,60.70
2018-05-18T06:59:56.985Z,62.40
2018-05-18T07:04:58.517Z,61.60
2018-05-18T07:10:00.119Z,62.40
2018-05-18T07:15:01.671Z,62.30
2018-05-18T07:20:03.198Z,60.50
2018-05-18T07:25:04.730Z,59.20
2018-05-18T07:30:06.293Z,50.70
2018-05-18T07:35:07.763Z,47.30
2018-05-18T07:40:09.328Z,45.90
2018-05-18T07:45:10.853Z,46.40
2018-05-18T07:50:12.445Z,50.00
2018-05-18T07:55:14.581Z,51.50
2018-05-18T08:00:17.062Z,47.70
2018-05-18T08:05:19.315Z,51.00
2018-05-18T08:10:20.854Z,50.80
2018-05-18T08:15:22.411Z,54.10
2018-05-18T08:20:23.920Z,54.50
2018-05-18T08:25:25.472Z,52.90
2018-05-18T08:30:27.036Z,50.90
2018-05-18T08:35:28.564Z,49.40
2018-05-18T08:40:30.102Z,50.50
2018-05-18T08:45:31.665Z,51.20
2018-05-18T08:50:33.195Z,50.70
2018-05-18T08:55:34.759Z,50.40
2018-05-18T09:00:36.335Z,47.50
2018-05-18T09:05:38.639Z,49.30
2018-05-18T09:10:40.172Z,49.30
2018-05-18T09:15:41.723Z,49.20
2018-05-18T09:20:43.262Z,48.60
2018-05-18T09:25:44.791Z,48.40
2018-05-18T09:30:46.332Z,50.70
2018-05-18T09:35:47.863Z,50.50
2018-05-18T09:40:49.372Z,51.40
2018-05-18T09:45:50.910Z,44.20
2018-05-18T09:50:52.436Z,46.50
2018-05-18T09:55:53.972Z,49.30
2018-05-18T10:00:55.474Z,48.90
2018-05-18T10:05:57.063Z,48.40
2018-05-18T10:10:58.587Z,52.40
2018-05-18T10:16:00.112Z,48.40
2018-05-18T10:21:02.361Z,49.30
2018-05-18T10:26:03.965Z,49.80
2018-05-18T10:31:05.456Z,49.60
2018-05-18T10:36:07.011Z,48.10
2018-05-18T10:41:09.372Z,44.00
2018-05-18T10:46:10.876Z,44.00
2018-05-18T10:51:13.144Z,45.90
2018-05-18T10:56:15.379Z,46.10
2018-05-18T11:01:17.008Z,46.10
2018-05-18T11:06:19.325Z,46.90
2018-05-18T11:11:20.844Z,46.70
2018-05-18T11:16:22.486Z,49.60
2018-05-18T11:21:24.044Z,49.40
2018-05-18T11:26:25.610Z,49.40
2018-05-18T11:31:27.826Z,49.20
2018-05-18T11:36:29.386Z,49.20
2018-05-18T11:41:30.884Z,47.00
2018-05-18T11:46:33.143Z,45.20
2018-05-18T11:51:34.710Z,45.20
2018-05-18T11:56:36.248Z,49.50
2018-05-18T12:01:37.699Z,47.80
2018-05-18T12:06:39.284Z,48.80
2018-05-18T12:11:40.843Z,53.70
2018-05-18T12:16:42.390Z,50.40
2018-05-18T12:21:43.932Z,50.70
2018-05-18T12:26:46.208Z,50.70
2018-05-18T12:31:47.730Z,50.70
2018-05-18T12:36:49.275Z,51.30
2018-05-18T12:41:51.525Z,51.10
2018-05-18T12:46:53.009Z,51.10
2018-05-18T12:51:55.381Z,50.20
2018-05-18T12:56:56.905Z,50.10
2018-05-18T13:01:58.490Z,50.80
2018-05-18T13:07:00.068Z,48.80
2018-05-18T13:12:01.649Z,51.10
2018-05-18T13:17:03.209Z,49.80
2018-05-18T13:22:04.925Z,50.20
2018-05-18T13:27:07.212Z,50.10
2018-05-18T13:32:08.741Z,50.10
2018-05-18T13:37:10.277Z,51.10
2018-05-18T13:42:11.849Z,49.70
2018-05-18T13:47:13.392Z,52.50
2018-05-18T13:52:14.943Z,51.80
2018-05-18T13:57:17.297Z,53.90
2018-05-18T14:02:18.679Z,53.80
2018-05-18T14:07:20.179Z,52.90
2018-05-18T14:12:21.642Z,51.80
2018-05-18T14:17:23.169Z,51.80
2018-05-18T14:22:24.733Z,52.60
2018-05-18T14:27:26.299Z,54.70
2018-05-18T14:32:27.980Z,52.00
2018-05-18T14:37:29.479Z,53.10
2018-05-18T14:42:30.989Z,53.10
2018-05-18T14:47:32.545Z,50.60
2018-05-18T14:52:34.075Z,52.00
2018-05-18T14:57:36.324Z,50.10
2018-05-18T15:02:37.835Z,50.10
2018-05-18T15:07:39.278Z,51.50
2018-05-18T15:12:40.724Z,51.20
2018-05-18T15:17:42.186Z,49.20
2018-05-18T15:22:43.615Z,49.80
2018-05-18T15:27:45.100Z,50.10
2018-05-18T15:32:46.577Z,51.20
2018-05-18T15:37:48.089Z,48.20
2018-05-18T15:42:50.422Z,54.80
2018-05-18T15:47:51.935Z,54.70
2018-05-18T15:52:54.327Z,54.40
2018-05-18T15:57:56.604Z,55.80
2018-05-18T16:02:58.908Z,55.60
2018-05-18T16:08:00.450Z,55.50
2018-05-18T16:13:02.087Z,57.30
2018-05-18T16:18:10.653Z,55.20
2018-05-18T16:23:12.183Z,56.70
2018-05-18T16:28:13.757Z,56.10
2018-05-18T16:33:15.286Z,56.80
2018-05-18T16:38:16.872Z,56.80
2018-05-18T16:43:18.427Z,56.80
2018-05-18T16:48:19.966Z,56.90
2018-05-18T16:53:22.517Z,56.50
2018-05-18T16:58:24.043Z,56.50
2018-05-18T17:03:25.588Z,57.40
2018-05-18T17:08:27.160Z,58.70
2018-05-18T17:13:29.430Z,56.90
2018-05-18T17:18:30.984Z,56.10
2018-05-18T17:23:32.618Z,57.60
2018-05-18T17:28:34.144Z,58.90
2018-05-18T17:33:35.699Z,58.70
2018-05-18T17:38:37.293Z,60.40
2018-05-18T17:43:46.501Z,60.40
2018-05-18T17:48:48.021Z,60.30
2018-05-18T17:53:49.573Z,60.20
2018-05-18T17:58:51.904Z,61.10
2018-05-18T18:03:53.459Z,61.00
2018-05-18T18:08:55.020Z,59.90
2018-05-18T18:13:56.603Z,62.60
2018-05-18T18:18:58.099Z,61.90
2018-05-18T18:23:59.671Z,62.70
2018-05-18T18:29:02.026Z,64.10
2018-05-18T18:34:03.806Z,65.20
2018-05-18T18:39:05.337Z,65.50
2018-05-18T18:44:07.610Z,67.20
2018-05-18T18:49:09.896Z,67.80
2018-05-18T18:54:12.272Z,68.80
2018-05-18T18:59:13.791Z,68.80
2018-05-18T19:04:15.373Z,69.90
2018-05-18T19:09:17.167Z,69.60
2018-05-18T19:14:18.764Z,69.60
2018-05-18T19:19:20.320Z,70.00
2018-05-18T19:24:21.926Z,70.50
2018-05-18T19:29:23.399Z,70.50
2018-05-18T19:34:24.927Z,71.50
2018-05-18T19:39:26.524Z,71.60
2018-05-18T19:44:28.287Z,71.60
2018-05-18T19:49:29.766Z,72.70
2018-05-18T19:54:31.362Z,73.20
2018-05-18T19:59:32.949Z,72.30
2018-05-18T20:04:34.494Z,71.60
2018-05-18T20:09:36.420Z,71.50
2018-05-18T20:14:38.017Z,72.10
2018-05-18T20:19:39.804Z,73.10
2018-05-18T20:24:41.387Z,73.80
2018-05-18T20:29:43.351Z,75.80
2018-05-18T20:34:45.278Z,76.40
2018-05-18T20:39:46.865Z,76.00
2018-05-18T20:44:48.560Z,75.60
2018-05-18T20:49:50.340Z,76.00
2018-05-18T20:54:52.000Z,75.70
2018-05-18T20:59:54.077Z,74.50
2018-05-18T21:04:55.764Z,75.40
2018-05-18T21:09:57.508Z,75.20
2018-05-18T21:14:59.261Z,75.30
2018-05-18T21:20:01.671Z,77.10
2018-05-18T21:25:04.218Z,77.10
2018-05-18T21:30:05.843Z,76.80
2018-05-18T21:35:08.277Z,77.10
2018-05-18T21:40:09.932Z,77.50
2018-05-18T21:45:11.521Z,77.40
2018-05-18T21:50:13.167Z,77.90
2018-05-18T21:55:15.035Z,78.00
2018-05-18T22:00:16.769Z,78.00
2018-05-18T22:05:19.032Z,78.90
2018-05-18T22:10:20.679Z,78.70
2018-05-18T22:15:22.172Z,79.20
2018-05-18T22:20:23.693Z,79.30
2018-05-18T22:25:25.211Z,79.60
2018-05-18T22:30:26.701Z,79.50
2018-05-18T22:35:29.084Z,78.70
2018-05-18T22:40:31.391Z,79.20
2018-05-18T22:45:33.161Z,79.10
2018-05-18T22:50:34.648Z,80.60
2018-05-18T22:55:36.185Z,79.50
2018-05-18T23:00:38.598Z,81.80
2018-05-18T23:05:40.127Z,81.60
2018-05-18T23:10:42.510Z,84.40
2018-05-18T23:15:45.131Z,84.10
2018-05-18T23:20:46.741Z,84.00
2018-05-18T23:25:52.504Z,83.90
2018-05-18T23:30:54.065Z,83.40
2018-05-18T23:35:56.627Z,83.50
2018-05-18T23:40:58.445Z,84.40
2018-05-18T23:45:59.962Z,83.10
2018-05-18T23:51:01.484Z,83.10
2018-05-18T23:56:03.062Z,83.50
